sensor_id;sensor_type;location;lat;lon;timestamp;P1;durP1;ratioP1;P2;durP2;ratioP2
6821;SDS011;3449;48.728;8.968;2023-03-31T00:01:05;5.73;;;2.03;;
6821;SDS011;3449;48.728;8.968;2023-03-31T00:03:32;1.93;;;1.27;;
6821;SDS011;3449;48.728;8.968;2023-03-31T00:06:02;6.30;;;1.10;;
6821;SDS011;3449;48.728;8.968;2023-03-31T00:08:30;4.80;;;1.30;;
6821;SDS011;3449;48.728;8.968;2023-03-31T00:11:02;2.97;;;1.20;;
6821;SDS011;3449;48.728;8.968;2023-03-31T00:13:31;10.80;;;1.90;;
6821;SDS011;3449;48.728;8.968;2023-03-31T00:16:00;5.53;;;1.73;;
6821;SDS011;3449;48.728;8.968;2023-03-31T00:18:28;5.07;;;1.70;;
6821;SDS011;3449;48.728;8.968;2023-03-31T00:20:58;5.33;;;1.77;;
6821;SDS011;3449;48.728;8.968;2023-03-31T00:23:31;8.30;;;1.33;;
6821;SDS011;3449;48.728;8.968;2023-03-31T00:25:58;2.67;;;1.60;;
6821;SDS011;3449;48.728;8.968;2023-03-31T00:28:27;3.87;;;1.50;;
6821;SDS011;3449;48.728;8.968;2023-03-31T00:30:58;5.90;;;1.50;;
6821;SDS011;3449;48.728;8.968;2023-03-31T00:33:26;5.87;;;1.60;;
6821;SDS011;3449;48.728;8.968;2023-03-31T00:35:53;7.30;;;1.73;;
6821;SDS011;3449;48.728;8.968;2023-03-31T00:38:20;1.40;;;1.23;;
6821;SDS011;3449;48.728;8.968;2023-03-31T00:40:47;5.63;;;1.63;;
6821;SDS011;3449;48.728;8.968;2023-03-31T00:43:20;5.40;;;1.70;;
6821;SDS011;3449;48.728;8.968;2023-03-31T00:45:54;5.23;;;1.50;;
6821;SDS011;3449;48.728;8.968;2023-03-31T00:48:25;6.27;;;1.90;;
6821;SDS011;3449;48.728;8.968;2023-03-31T00:50:53;3.13;;;1.47;;
6821;SDS011;3449;48.728;8.968;2023-03-31T00:53:23;5.50;;;1.60;;
6821;SDS011;3449;48.728;8.968;2023-03-31T00:55:54;4.60;;;1.40;;
6821;SDS011;3449;48.728;8.968;2023-03-31T00:58:28;5.23;;;1.43;;
6821;SDS011;3449;48.728;8.968;2023-03-31T01:00:57;4.67;;;1.50;;
6821;SDS011;3449;48.728;8.968;2023-03-31T01:03:26;5.00;;;2.13;;
6821;SDS011;3449;48.728;8.968;2023-03-31T01:05:54;2.47;;;1.40;;
6821;SDS011;3449;48.728;8.968;2023-03-31T01:08:26;10.13;;;1.70;;
6821;SDS011;3449;48.728;8.968;2023-03-31T01:10:54;8.80;;;2.00;;
6821;SDS011;3449;48.728;8.968;2023-03-31T01:13:25;4.30;;;1.40;;
6821;SDS011;3449;48.728;8.968;2023-03-31T01:15:54;7.80;;;1.93;;
6821;SDS011;3449;48.728;8.968;2023-03-31T01:18:20;10.70;;;1.37;;
6821;SDS011;3449;48.728;8.968;2023-03-31T01:20:58;4.37;;;1.83;;
6821;SDS011;3449;48.728;8.968;2023-03-31T01:27:00;3.90;;;1.73;;
6821;SDS011;3449;48.728;8.968;2023-03-31T01:30:02;7.07;;;1.70;;
6821;SDS011;3449;48.728;8.968;2023-03-31T01:32:56;8.67;;;1.63;;
6821;SDS011;3449;48.728;8.968;2023-03-31T01:35:57;3.33;;;1.83;;
6821;SDS011;3449;48.728;8.968;2023-03-31T01:38:48;10.67;;;2.13;;
6821;SDS011;3449;48.728;8.968;2023-03-31T01:41:43;12.20;;;1.77;;
6821;SDS011;3449;48.728;8.968;2023-03-31T01:44:16;3.93;;;1.30;;
6821;SDS011;3449;48.728;8.968;2023-03-31T01:46:51;3.70;;;1.33;;
6821;SDS011;3449;48.728;8.968;2023-03-31T01:49:22;3.23;;;1.20;;
6821;SDS011;3449;48.728;8.968;2023-03-31T01:51:56;7.30;;;1.60;;
6821;SDS011;3449;48.728;8.968;2023-03-31T01:54:29;4.30;;;1.83;;
6821;SDS011;3449;48.728;8.968;2023-03-31T01:57:04;2.27;;;1.57;;
6821;SDS011;3449;48.728;8.968;2023-03-31T01:59:37;3.67;;;1.27;;
6821;SDS011;3449;48.728;8.968;2023-03-31T02:02:09;6.17;;;2.47;;
6821;SDS011;3449;48.728;8.968;2023-03-31T02:04:42;8.47;;;1.73;;
6821;SDS011;3449;48.728;8.968;2023-03-31T02:07:17;8.43;;;1.87;;
6821;SDS011;3449;48.728;8.968;2023-03-31T02:09:48;2.90;;;1.43;;
6821;SDS011;3449;48.728;8.968;2023-03-31T02:12:24;7.90;;;1.30;;
6821;SDS011;3449;48.728;8.968;2023-03-31T02:14:53;5.73;;;2.23;;
6821;SDS011;3449;48.728;8.968;2023-03-31T02:17:22;5.93;;;2.03;;
6821;SDS011;3449;48.728;8.968;2023-03-31T02:19:54;3.60;;;1.70;;
6821;SDS011;3449;48.728;8.968;2023-03-31T02:22:24;5.73;;;1.70;;
6821;SDS011;3449;48.728;8.968;2023-03-31T02:24:56;7.53;;;1.77;;
6821;SDS011;3449;48.728;8.968;2023-03-31T02:27:28;6.87;;;1.90;;
6821;SDS011;3449;48.728;8.968;2023-03-31T02:29:57;6.63;;;1.63;;
6821;SDS011;3449;48.728;8.968;2023-03-31T02:32:26;7.33;;;2.33;;
6821;SDS011;3449;48.728;8.968;2023-03-31T02:34:57;10.83;;;2.60;;
6821;SDS011;3449;48.728;8.968;2023-03-31T02:37:25;5.13;;;2.40;;
6821;SDS011;3449;48.728;8.968;2023-03-31T02:39:54;6.63;;;2.40;;
6821;SDS011;3449;48.728;8.968;2023-03-31T02:42:23;3.33;;;1.63;;
6821;SDS011;3449;48.728;8.968;2023-03-31T02:44:52;4.93;;;1.67;;
6821;SDS011;3449;48.728;8.968;2023-03-31T02:47:19;5.80;;;2.43;;
6821;SDS011;3449;48.728;8.968;2023-03-31T02:49:47;3.37;;;1.90;;
6821;SDS011;3449;48.728;8.968;2023-03-31T02:55:15;2.40;;;1.50;;
6821;SDS011;3449;48.728;8.968;2023-03-31T02:58:04;1.87;;;1.10;;
6821;SDS011;3449;48.728;8.968;2023-03-31T03:00:50;7.60;;;1.70;;
6821;SDS011;3449;48.728;8.968;2023-03-31T03:03:35;5.23;;;1.80;;
6821;SDS011;3449;48.728;8.968;2023-03-31T03:06:10;10.80;;;2.77;;
6821;SDS011;3449;48.728;8.968;2023-03-31T03:08:51;5.90;;;2.00;;
6821;SDS011;3449;48.728;8.968;2023-03-31T03:11:30;5.00;;;2.00;;
6821;SDS011;3449;48.728;8.968;2023-03-31T03:14:05;3.40;;;2.40;;
6821;SDS011;3449;48.728;8.968;2023-03-31T03:16:43;3.77;;;1.63;;
6821;SDS011;3449;48.728;8.968;2023-03-31T03:19:17;4.13;;;1.70;;
6821;SDS011;3449;48.728;8.968;2023-03-31T03:21:45;3.93;;;2.23;;
6821;SDS011;3449;48.728;8.968;2023-03-31T03:24:12;3.90;;;1.50;;
6821;SDS011;3449;48.728;8.968;2023-03-31T03:26:41;2.93;;;1.57;;
6821;SDS011;3449;48.728;8.968;2023-03-31T03:29:08;2.30;;;1.70;;
6821;SDS011;3449;48.728;8.968;2023-03-31T03:31:37;3.30;;;1.67;;
6821;SDS011;3449;48.728;8.968;2023-03-31T03:34:05;5.23;;;2.27;;
6821;SDS011;3449;48.728;8.968;2023-03-31T03:36:33;2.90;;;2.60;;
6821;SDS011;3449;48.728;8.968;2023-03-31T03:39:01;8.27;;;2.73;;
6821;SDS011;3449;48.728;8.968;2023-03-31T03:41:29;7.63;;;2.33;;
6821;SDS011;3449;48.728;8.968;2023-03-31T03:43:57;7.57;;;3.03;;
6821;SDS011;3449;48.728;8.968;2023-03-31T03:46:24;8.80;;;3.00;;
6821;SDS011;3449;48.728;8.968;2023-03-31T03:48:51;8.57;;;2.80;;
6821;SDS011;3449;48.728;8.968;2023-03-31T03:51:19;5.77;;;2.10;;
6821;SDS011;3449;48.728;8.968;2023-03-31T03:53:46;8.30;;;2.10;;
6821;SDS011;3449;48.728;8.968;2023-03-31T03:56:13;7.23;;;2.57;;
6821;SDS011;3449;48.728;8.968;2023-03-31T03:58:40;7.47;;;2.00;;
6821;SDS011;3449;48.728;8.968;2023-03-31T04:01:06;3.90;;;2.10;;
6821;SDS011;3449;48.728;8.968;2023-03-31T04:03:33;3.63;;;1.70;;
6821;SDS011;3449;48.728;8.968;2023-03-31T04:06:00;3.90;;;2.07;;
6821;SDS011;3449;48.728;8.968;2023-03-31T04:08:28;3.93;;;1.90;;
6821;SDS011;3449;48.728;8.968;2023-03-31T04:10:55;11.37;;;2.20;;
6821;SDS011;3449;48.728;8.968;2023-03-31T04:13:22;4.90;;;2.23;;
6821;SDS011;3449;48.728;8.968;2023-03-31T04:15:49;8.63;;;2.20;;
6821;SDS011;3449;48.728;8.968;2023-03-31T04:18:16;3.73;;;2.00;;
6821;SDS011;3449;48.728;8.968;2023-03-31T04:20:46;10.23;;;3.13;;
6821;SDS011;3449;48.728;8.968;2023-03-31T04:23:18;9.53;;;2.70;;
6821;SDS011;3449;48.728;8.968;2023-03-31T04:25:48;5.20;;;2.50;;
6821;SDS011;3449;48.728;8.968;2023-03-31T04:28:15;6.93;;;2.50;;
6821;SDS011;3449;48.728;8.968;2023-03-31T04:30:42;9.50;;;2.87;;
6821;SDS011;3449;48.728;8.968;2023-03-31T04:33:09;2.43;;;2.23;;
6821;SDS011;3449;48.728;8.968;2023-03-31T04:35:40;7.27;;;2.73;;
6821;SDS011;3449;48.728;8.968;2023-03-31T04:38:16;6.77;;;2.47;;
6821;SDS011;3449;48.728;8.968;2023-03-31T04:40:46;4.23;;;2.40;;
6821;SDS011;3449;48.728;8.968;2023-03-31T04:43:15;6.07;;;3.27;;
6821;SDS011;3449;48.728;8.968;2023-03-31T04:45:43;7.20;;;2.77;;
6821;SDS011;3449;48.728;8.968;2023-03-31T04:48:10;8.90;;;3.20;;
6821;SDS011;3449;48.728;8.968;2023-03-31T04:50:37;5.53;;;2.70;;
6821;SDS011;3449;48.728;8.968;2023-03-31T04:53:04;9.20;;;2.97;;
6821;SDS011;3449;48.728;8.968;2023-03-31T04:55:31;8.03;;;2.83;;
6821;SDS011;3449;48.728;8.968;2023-03-31T04:57:58;4.70;;;2.87;;
6821;SDS011;3449;48.728;8.968;2023-03-31T05:00:27;5.13;;;2.73;;
6821;SDS011;3449;48.728;8.968;2023-03-31T05:02:54;6.60;;;3.30;;
6821;SDS011;3449;48.728;8.968;2023-03-31T05:05:21;9.83;;;2.97;;
6821;SDS011;3449;48.728;8.968;2023-03-31T05:07:48;12.70;;;3.10;;
6821;SDS011;3449;48.728;8.968;2023-03-31T05:10:15;6.20;;;3.00;;
6821;SDS011;3449;48.728;8.968;2023-03-31T05:12:42;7.60;;;2.80;;
6821;SDS011;3449;48.728;8.968;2023-03-31T05:15:09;6.40;;;3.70;;
6821;SDS011;3449;48.728;8.968;2023-03-31T05:17:37;8.00;;;3.40;;
6821;SDS011;3449;48.728;8.968;2023-03-31T05:20:04;11.17;;;4.17;;
6821;SDS011;3449;48.728;8.968;2023-03-31T05:22:33;14.87;;;4.40;;
6821;SDS011;3449;48.728;8.968;2023-03-31T05:25:01;6.60;;;3.20;;
6821;SDS011;3449;48.728;8.968;2023-03-31T05:27:29;11.73;;;3.50;;
6821;SDS011;3449;48.728;8.968;2023-03-31T05:29:56;10.80;;;3.53;;
6821;SDS011;3449;48.728;8.968;2023-03-31T05:32:23;8.60;;;4.77;;
6821;SDS011;3449;48.728;8.968;2023-03-31T05:34:52;14.87;;;3.70;;
6821;SDS011;3449;48.728;8.968;2023-03-31T05:37:21;9.63;;;3.30;;
6821;SDS011;3449;48.728;8.968;2023-03-31T05:39:49;6.73;;;3.30;;
6821;SDS011;3449;48.728;8.968;2023-03-31T05:42:16;8.43;;;3.27;;
6821;SDS011;3449;48.728;8.968;2023-03-31T05:44:43;7.00;;;3.40;;
6821;SDS011;3449;48.728;8.968;2023-03-31T05:47:10;10.07;;;3.73;;
6821;SDS011;3449;48.728;8.968;2023-03-31T05:49:38;12.80;;;3.83;;
6821;SDS011;3449;48.728;8.968;2023-03-31T05:52:06;9.90;;;3.47;;
6821;SDS011;3449;48.728;8.968;2023-03-31T05:54:34;9.03;;;3.50;;
6821;SDS011;3449;48.728;8.968;2023-03-31T05:57:01;6.50;;;4.30;;
6821;SDS011;3449;48.728;8.968;2023-03-31T05:59:28;6.93;;;3.47;;
6821;SDS011;3449;48.728;8.968;2023-03-31T06:01:54;9.20;;;4.40;;
6821;SDS011;3449;48.728;8.968;2023-03-31T06:04:22;8.40;;;4.43;;
6821;SDS011;3449;48.728;8.968;2023-03-31T06:06:49;11.67;;;6.57;;
6821;SDS011;3449;48.728;8.968;2023-03-31T06:09:19;17.67;;;6.03;;
6821;SDS011;3449;48.728;8.968;2023-03-31T06:11:46;25.53;;;8.00;;
6821;SDS011;3449;48.728;8.968;2023-03-31T06:14:13;10.80;;;6.60;;
6821;SDS011;3449;48.728;8.968;2023-03-31T06:16:40;15.50;;;6.53;;
6821;SDS011;3449;48.728;8.968;2023-03-31T06:19:07;15.73;;;6.97;;
6821;SDS011;3449;48.728;8.968;2023-03-31T06:21:34;12.40;;;6.87;;
6821;SDS011;3449;48.728;8.968;2023-03-31T06:24:01;16.93;;;8.77;;
6821;SDS011;3449;48.728;8.968;2023-03-31T06:26:29;10.60;;;7.43;;
6821;SDS011;3449;48.728;8.968;2023-03-31T06:28:56;18.70;;;5.43;;
6821;SDS011;3449;48.728;8.968;2023-03-31T06:31:23;16.23;;;5.83;;
6821;SDS011;3449;48.728;8.968;2023-03-31T06:33:51;21.17;;;7.43;;
6821;SDS011;3449;48.728;8.968;2023-03-31T06:36:18;8.03;;;4.33;;
6821;SDS011;3449;48.728;8.968;2023-03-31T06:38:47;12.30;;;4.77;;
6821;SDS011;3449;48.728;8.968;2023-03-31T06:41:15;11.70;;;4.93;;
6821;SDS011;3449;48.728;8.968;2023-03-31T06:43:45;12.17;;;4.40;;
6821;SDS011;3449;48.728;8.968;2023-03-31T06:46:13;12.27;;;4.00;;
6821;SDS011;3449;48.728;8.968;2023-03-31T06:48:40;8.00;;;3.73;;
6821;SDS011;3449;48.728;8.968;2023-03-31T06:51:08;8.30;;;4.40;;
6821;SDS011;3449;48.728;8.968;2023-03-31T06:53:35;5.70;;;3.77;;
6821;SDS011;3449;48.728;8.968;2023-03-31T06:56:04;6.90;;;4.00;;
6821;SDS011;3449;48.728;8.968;2023-03-31T06:58:31;9.33;;;4.73;;
6821;SDS011;3449;48.728;8.968;2023-03-31T07:01:02;12.63;;;4.67;;
6821;SDS011;3449;48.728;8.968;2023-03-31T07:03:30;8.30;;;3.50;;
6821;SDS011;3449;48.728;8.968;2023-03-31T07:05:57;7.93;;;3.57;;
6821;SDS011;3449;48.728;8.968;2023-03-31T07:08:24;3.97;;;2.53;;
6821;SDS011;3449;48.728;8.968;2023-03-31T07:10:53;5.07;;;2.67;;
6821;SDS011;3449;48.728;8.968;2023-03-31T07:13:22;5.90;;;2.77;;
6821;SDS011;3449;48.728;8.968;2023-03-31T07:15:49;4.93;;;2.20;;
6821;SDS011;3449;48.728;8.968;2023-03-31T07:18:18;2.93;;;2.20;;
6821;SDS011;3449;48.728;8.968;2023-03-31T07:20:46;2.90;;;2.00;;
6821;SDS011;3449;48.728;8.968;2023-03-31T07:23:14;4.87;;;2.27;;
6821;SDS011;3449;48.728;8.968;2023-03-31T07:25:41;7.07;;;1.87;;
6821;SDS011;3449;48.728;8.968;2023-03-31T07:28:09;1.63;;;1.50;;
6821;SDS011;3449;48.728;8.968;2023-03-31T07:30:36;1.40;;;1.23;;
6821;SDS011;3449;48.728;8.968;2023-03-31T07:33:04;3.80;;;1.40;;
6821;SDS011;3449;48.728;8.968;2023-03-31T07:35:32;7.80;;;1.40;;
6821;SDS011;3449;48.728;8.968;2023-03-31T07:38:02;2.27;;;1.03;;
6821;SDS011;3449;48.728;8.968;2023-03-31T07:40:29;0.90;;;0.90;;
6821;SDS011;3449;48.728;8.968;2023-03-31T07:42:56;2.60;;;1.20;;
6821;SDS011;3449;48.728;8.968;2023-03-31T07:45:23;2.13;;;1.10;;
6821;SDS011;3449;48.728;8.968;2023-03-31T07:47:51;6.30;;;1.37;;
6821;SDS011;3449;48.728;8.968;2023-03-31T07:50:19;2.70;;;0.90;;
6821;SDS011;3449;48.728;8.968;2023-03-31T07:52:49;1.73;;;0.70;;
6821;SDS011;3449;48.728;8.968;2023-03-31T07:55:16;2.57;;;0.90;;
6821;SDS011;3449;48.728;8.968;2023-03-31T07:57:44;2.70;;;0.93;;
6821;SDS011;3449;48.728;8.968;2023-03-31T08:00:12;1.10;;;1.00;;
6821;SDS011;3449;48.728;8.968;2023-03-31T08:02:40;1.73;;;0.70;;
6821;SDS011;3449;48.728;8.968;2023-03-31T08:05:08;1.60;;;0.80;;
6821;SDS011;3449;48.728;8.968;2023-03-31T08:07:37;1.33;;;0.80;;
6821;SDS011;3449;48.728;8.968;2023-03-31T08:10:08;1.80;;;0.97;;
6821;SDS011;3449;48.728;8.968;2023-03-31T08:12:37;1.00;;;0.83;;
6821;SDS011;3449;48.728;8.968;2023-03-31T08:15:05;0.90;;;0.70;;
6821;SDS011;3449;48.728;8.968;2023-03-31T08:17:33;0.83;;;0.83;;
6821;SDS011;3449;48.728;8.968;2023-03-31T08:20:00;0.60;;;0.53;;
6821;SDS011;3449;48.728;8.968;2023-03-31T08:22:30;0.70;;;0.70;;
6821;SDS011;3449;48.728;8.968;2023-03-31T08:24:57;1.20;;;0.67;;
6821;SDS011;3449;48.728;8.968;2023-03-31T08:27:25;1.40;;;0.80;;
6821;SDS011;3449;48.728;8.968;2023-03-31T08:29:52;1.27;;;0.90;;
6821;SDS011;3449;48.728;8.968;2023-03-31T08:32:20;1.90;;;1.27;;
6821;SDS011;3449;48.728;8.968;2023-03-31T08:34:48;2.97;;;1.10;;
6821;SDS011;3449;48.728;8.968;2023-03-31T08:37:16;1.43;;;0.80;;
6821;SDS011;3449;48.728;8.968;2023-03-31T08:39:42;1.43;;;0.83;;
6821;SDS011;3449;48.728;8.968;2023-03-31T08:42:10;6.37;;;1.40;;
6821;SDS011;3449;48.728;8.968;2023-03-31T08:44:43;2.03;;;1.07;;
6821;SDS011;3449;48.728;8.968;2023-03-31T08:47:23;3.13;;;1.40;;
6821;SDS011;3449;48.728;8.968;2023-03-31T08:49:52;1.53;;;1.00;;
6821;SDS011;3449;48.728;8.968;2023-03-31T08:52:23;4.40;;;1.00;;
6821;SDS011;3449;48.728;8.968;2023-03-31T08:54:55;4.10;;;1.17;;
6821;SDS011;3449;48.728;8.968;2023-03-31T08:57:25;0.70;;;0.60;;
6821;SDS011;3449;48.728;8.968;2023-03-31T08:59:58;2.03;;;0.87;;
6821;SDS011;3449;48.728;8.968;2023-03-31T09:02:31;0.70;;;0.70;;
6821;SDS011;3449;48.728;8.968;2023-03-31T09:05:16;5.10;;;1.23;;
6821;SDS011;3449;48.728;8.968;2023-03-31T09:07:52;2.77;;;1.17;;
6821;SDS011;3449;48.728;8.968;2023-03-31T09:10:29;3.20;;;1.53;;
6821;SDS011;3449;48.728;8.968;2023-03-31T09:13:05;3.00;;;1.10;;
6821;SDS011;3449;48.728;8.968;2023-03-31T09:15:44;4.83;;;0.90;;
6821;SDS011;3449;48.728;8.968;2023-03-31T09:18:18;3.20;;;0.77;;
6821;SDS011;3449;48.728;8.968;2023-03-31T09:21:01;1.80;;;0.70;;
6821;SDS011;3449;48.728;8.968;2023-03-31T09:23:33;2.83;;;1.40;;
6821;SDS011;3449;48.728;8.968;2023-03-31T09:26:03;0.80;;;0.70;;
6821;SDS011;3449;48.728;8.968;2023-03-31T09:28:37;4.90;;;1.13;;
6821;SDS011;3449;48.728;8.968;2023-03-31T09:31:10;3.47;;;1.43;;
6821;SDS011;3449;48.728;8.968;2023-03-31T09:33:41;11.03;;;1.20;;
6821;SDS011;3449;48.728;8.968;2023-03-31T09:36:12;1.30;;;0.60;;
6821;SDS011;3449;48.728;8.968;2023-03-31T09:38:43;4.00;;;1.20;;
6821;SDS011;3449;48.728;8.968;2023-03-31T09:41:11;1.67;;;1.00;;
6821;SDS011;3449;48.728;8.968;2023-03-31T09:43:41;2.10;;;0.80;;
6821;SDS011;3449;48.728;8.968;2023-03-31T09:46:13;3.27;;;0.73;;
6821;SDS011;3449;48.728;8.968;2023-03-31T09:48:47;3.07;;;1.50;;
6821;SDS011;3449;48.728;8.968;2023-03-31T09:51:19;3.80;;;0.87;;
6821;SDS011;3449;48.728;8.968;2023-03-31T09:53:52;2.30;;;0.80;;
6821;SDS011;3449;48.728;8.968;2023-03-31T09:59:15;2.87;;;0.83;;
6821;SDS011;3449;48.728;8.968;2023-03-31T10:01:45;2.13;;;1.10;;
6821;SDS011;3449;48.728;8.968;2023-03-31T10:04:17;4.37;;;1.03;;
6821;SDS011;3449;48.728;8.968;2023-03-31T10:06:47;4.10;;;0.90;;
6821;SDS011;3449;48.728;8.968;2023-03-31T10:09:16;3.20;;;1.00;;
6821;SDS011;3449;48.728;8.968;2023-03-31T10:11:51;3.33;;;0.90;;
6821;SDS011;3449;48.728;8.968;2023-03-31T10:14:23;1.80;;;1.13;;
6821;SDS011;3449;48.728;8.968;2023-03-31T10:16:54;3.53;;;1.40;;
6821;SDS011;3449;48.728;8.968;2023-03-31T10:19:23;10.57;;;1.63;;
6821;SDS011;3449;48.728;8.968;2023-03-31T10:21:54;5.07;;;1.10;;
6821;SDS011;3449;48.728;8.968;2023-03-31T10:24:22;10.40;;;1.93;;
6821;SDS011;3449;48.728;8.968;2023-03-31T10:26:51;4.40;;;1.00;;
6821;SDS011;3449;48.728;8.968;2023-03-31T10:29:20;2.07;;;1.40;;
6821;SDS011;3449;48.728;8.968;2023-03-31T10:31:54;7.33;;;1.10;;
6821;SDS011;3449;48.728;8.968;2023-03-31T10:34:21;4.53;;;1.40;;
6821;SDS011;3449;48.728;8.968;2023-03-31T10:36:49;2.20;;;0.90;;
6821;SDS011;3449;48.728;8.968;2023-03-31T10:39:17;9.20;;;1.30;;
6821;SDS011;3449;48.728;8.968;2023-03-31T10:41:48;8.03;;;1.27;;
6821;SDS011;3449;48.728;8.968;2023-03-31T10:44:32;4.87;;;1.20;;
6821;SDS011;3449;48.728;8.968;2023-03-31T10:47:08;4.77;;;1.13;;
6821;SDS011;3449;48.728;8.968;2023-03-31T10:49:43;5.80;;;1.00;;
6821;SDS011;3449;48.728;8.968;2023-03-31T10:52:16;3.53;;;1.23;;
6821;SDS011;3449;48.728;8.968;2023-03-31T10:54:48;4.93;;;1.00;;
6821;SDS011;3449;48.728;8.968;2023-03-31T10:57:29;6.50;;;1.43;;
6821;SDS011;3449;48.728;8.968;2023-03-31T11:00:11;6.93;;;1.60;;
6821;SDS011;3449;48.728;8.968;2023-03-31T11:02:58;6.20;;;1.20;;
6821;SDS011;3449;48.728;8.968;2023-03-31T11:05:42;3.63;;;1.17;;
6821;SDS011;3449;48.728;8.968;2023-03-31T11:08:21;5.67;;;1.10;;
6821;SDS011;3449;48.728;8.968;2023-03-31T11:11:01;4.40;;;1.07;;
6821;SDS011;3449;48.728;8.968;2023-03-31T11:13:37;2.20;;;0.87;;
6821;SDS011;3449;48.728;8.968;2023-03-31T11:16:12;2.30;;;1.10;;
6821;SDS011;3449;48.728;8.968;2023-03-31T11:18:51;0.50;;;0.40;;
6821;SDS011;3449;48.728;8.968;2023-03-31T11:21:26;0.43;;;0.43;;
6821;SDS011;3449;48.728;8.968;2023-03-31T11:24:03;3.43;;;0.53;;
6821;SDS011;3449;48.728;8.968;2023-03-31T11:26:37;1.00;;;0.60;;
6821;SDS011;3449;48.728;8.968;2023-03-31T11:29:13;3.40;;;1.23;;
6821;SDS011;3449;48.728;8.968;2023-03-31T11:31:49;0.73;;;0.63;;
6821;SDS011;3449;48.728;8.968;2023-03-31T11:34:32;1.43;;;0.50;;
6821;SDS011;3449;48.728;8.968;2023-03-31T11:37:14;1.03;;;0.57;;
6821;SDS011;3449;48.728;8.968;2023-03-31T11:40:05;0.90;;;0.43;;
6821;SDS011;3449;48.728;8.968;2023-03-31T11:42:48;0.57;;;0.50;;
6821;SDS011;3449;48.728;8.968;2023-03-31T11:45:20;0.50;;;0.30;;
6821;SDS011;3449;48.728;8.968;2023-03-31T11:47:51;4.83;;;0.50;;
6821;SDS011;3449;48.728;8.968;2023-03-31T11:50:24;1.13;;;0.70;;
6821;SDS011;3449;48.728;8.968;2023-03-31T11:52:55;0.80;;;0.43;;
6821;SDS011;3449;48.728;8.968;2023-03-31T11:55:25;0.50;;;0.30;;
6821;SDS011;3449;48.728;8.968;2023-03-31T11:57:57;2.63;;;0.80;;
6821;SDS011;3449;48.728;8.968;2023-03-31T12:00:29;0.80;;;0.80;;
6821;SDS011;3449;48.728;8.968;2023-03-31T12:03:01;2.30;;;0.70;;
6821;SDS011;3449;48.728;8.968;2023-03-31T12:05:35;2.63;;;0.50;;
6821;SDS011;3449;48.728;8.968;2023-03-31T12:08:05;0.90;;;0.40;;
6821;SDS011;3449;48.728;8.968;2023-03-31T12:10:38;6.80;;;0.60;;
6821;SDS011;3449;48.728;8.968;2023-03-31T12:13:15;1.13;;;0.50;;
6821;SDS011;3449;48.728;8.968;2023-03-31T12:16:00;0.40;;;0.30;;
6821;SDS011;3449;48.728;8.968;2023-03-31T12:18:31;0.50;;;0.50;;
6821;SDS011;3449;48.728;8.968;2023-03-31T12:21:04;1.50;;;0.53;;
6821;SDS011;3449;48.728;8.968;2023-03-31T12:23:33;1.33;;;0.50;;
6821;SDS011;3449;48.728;8.968;2023-03-31T12:26:05;2.30;;;0.30;;
6821;SDS011;3449;48.728;8.968;2023-03-31T12:28:37;0.63;;;0.47;;
6821;SDS011;3449;48.728;8.968;2023-03-31T12:31:07;0.77;;;0.70;;
6821;SDS011;3449;48.728;8.968;2023-03-31T12:33:39;0.73;;;0.40;;
6821;SDS011;3449;48.728;8.968;2023-03-31T12:36:15;0.90;;;0.60;;
6821;SDS011;3449;48.728;8.968;2023-03-31T12:38:55;1.20;;;0.30;;
6821;SDS011;3449;48.728;8.968;2023-03-31T12:41:34;0.50;;;0.40;;
6821;SDS011;3449;48.728;8.968;2023-03-31T12:44:13;1.37;;;0.50;;
6821;SDS011;3449;48.728;8.968;2023-03-31T12:46:52;0.50;;;0.50;;
6821;SDS011;3449;48.728;8.968;2023-03-31T12:49:32;3.27;;;0.70;;
6821;SDS011;3449;48.728;8.968;2023-03-31T12:52:22;2.40;;;1.00;;
6821;SDS011;3449;48.728;8.968;2023-03-31T12:55:05;1.33;;;0.87;;
6821;SDS011;3449;48.728;8.968;2023-03-31T12:57:50;2.50;;;1.20;;
6821;SDS011;3449;48.728;8.968;2023-03-31T13:00:21;1.30;;;0.60;;
6821;SDS011;3449;48.728;8.968;2023-03-31T13:02:50;5.43;;;1.07;;
6821;SDS011;3449;48.728;8.968;2023-03-31T13:06:49;3.97;;;0.97;;
6821;SDS011;3449;48.728;8.968;2023-03-31T13:12:07;4.07;;;1.10;;
6821;SDS011;3449;48.728;8.968;2023-03-31T13:14:43;2.13;;;0.63;;
6821;SDS011;3449;48.728;8.968;2023-03-31T13:17:17;0.87;;;0.47;;
6821;SDS011;3449;48.728;8.968;2023-03-31T13:19:50;5.10;;;0.73;;
6821;SDS011;3449;48.728;8.968;2023-03-31T13:22:27;0.90;;;0.43;;
6821;SDS011;3449;48.728;8.968;2023-03-31T13:27:58;5.03;;;0.60;;
6821;SDS011;3449;48.728;8.968;2023-03-31T13:30:43;1.37;;;0.50;;
6821;SDS011;3449;48.728;8.968;2023-03-31T13:33:13;1.60;;;0.40;;
6821;SDS011;3449;48.728;8.968;2023-03-31T13:35:45;1.23;;;0.33;;
6821;SDS011;3449;48.728;8.968;2023-03-31T13:38:17;1.20;;;0.60;;
6821;SDS011;3449;48.728;8.968;2023-03-31T13:40:51;1.33;;;0.53;;
6821;SDS011;3449;48.728;8.968;2023-03-31T13:46:35;0.70;;;0.30;;
6821;SDS011;3449;48.728;8.968;2023-03-31T13:49:24;1.73;;;0.30;;
6821;SDS011;3449;48.728;8.968;2023-03-31T13:52:08;0.50;;;0.40;;
6821;SDS011;3449;48.728;8.968;2023-03-31T13:54:48;1.33;;;0.67;;
6821;SDS011;3449;48.728;8.968;2023-03-31T13:57:47;3.77;;;0.60;;
6821;SDS011;3449;48.728;8.968;2023-03-31T14:00:43;8.53;;;0.40;;
6821;SDS011;3449;48.728;8.968;2023-03-31T14:03:16;0.50;;;0.40;;
6821;SDS011;3449;48.728;8.968;2023-03-31T14:05:52;0.50;;;0.40;;
6821;SDS011;3449;48.728;8.968;2023-03-31T14:08:26;0.63;;;0.50;;
6821;SDS011;3449;48.728;8.968;2023-03-31T14:11:14;1.93;;;1.00;;
6821;SDS011;3449;48.728;8.968;2023-03-31T14:13:43;0.80;;;0.57;;
6821;SDS011;3449;48.728;8.968;2023-03-31T14:16:11;2.37;;;0.60;;
6821;SDS011;3449;48.728;8.968;2023-03-31T14:18:40;0.70;;;0.30;;
6821;SDS011;3449;48.728;8.968;2023-03-31T14:21:17;12.57;;;0.60;;
6821;SDS011;3449;48.728;8.968;2023-03-31T14:23:50;0.40;;;0.30;;
6821;SDS011;3449;48.728;8.968;2023-03-31T14:26:32;0.40;;;0.30;;
6821;SDS011;3449;48.728;8.968;2023-03-31T14:29:11;0.50;;;0.40;;
6821;SDS011;3449;48.728;8.968;2023-03-31T14:31:48;0.50;;;0.40;;
6821;SDS011;3449;48.728;8.968;2023-03-31T14:34:30;0.70;;;0.40;;
6821;SDS011;3449;48.728;8.968;2023-03-31T14:37:08;0.80;;;0.50;;
6821;SDS011;3449;48.728;8.968;2023-03-31T14:39:40;0.80;;;0.47;;
6821;SDS011;3449;48.728;8.968;2023-03-31T14:42:10;2.70;;;0.93;;
6821;SDS011;3449;48.728;8.968;2023-03-31T14:44:39;0.50;;;0.50;;
6821;SDS011;3449;48.728;8.968;2023-03-31T14:47:13;1.00;;;0.60;;
6821;SDS011;3449;48.728;8.968;2023-03-31T14:49:40;1.10;;;0.50;;
6821;SDS011;3449;48.728;8.968;2023-03-31T14:52:12;0.47;;;0.40;;
6821;SDS011;3449;48.728;8.968;2023-03-31T14:54:43;3.23;;;1.00;;
6821;SDS011;3449;48.728;8.968;2023-03-31T14:57:11;2.13;;;0.73;;
6821;SDS011;3449;48.728;8.968;2023-03-31T14:59:41;1.53;;;0.63;;
6821;SDS011;3449;48.728;8.968;2023-03-31T15:02:10;1.20;;;0.63;;
6821;SDS011;3449;48.728;8.968;2023-03-31T15:04:42;0.50;;;0.40;;
6821;SDS011;3449;48.728;8.968;2023-03-31T15:07:12;1.03;;;0.57;;
6821;SDS011;3449;48.728;8.968;2023-03-31T15:09:43;1.50;;;0.50;;
6821;SDS011;3449;48.728;8.968;2023-03-31T15:12:14;1.37;;;0.80;;
6821;SDS011;3449;48.728;8.968;2023-03-31T15:14:44;0.87;;;0.70;;
6821;SDS011;3449;48.728;8.968;2023-03-31T15:17:21;3.80;;;0.80;;
6821;SDS011;3449;48.728;8.968;2023-03-31T15:19:53;0.80;;;0.80;;
6821;SDS011;3449;48.728;8.968;2023-03-31T15:22:22;0.70;;;0.50;;
6821;SDS011;3449;48.728;8.968;2023-03-31T15:24:50;2.30;;;0.53;;
6821;SDS011;3449;48.728;8.968;2023-03-31T15:27:18;3.33;;;0.70;;
6821;SDS011;3449;48.728;8.968;2023-03-31T15:29:52;2.10;;;0.60;;
6821;SDS011;3449;48.728;8.968;2023-03-31T15:32:25;1.23;;;0.60;;
6821;SDS011;3449;48.728;8.968;2023-03-31T15:34:53;2.63;;;0.70;;
6821;SDS011;3449;48.728;8.968;2023-03-31T15:37:21;3.90;;;1.00;;
6821;SDS011;3449;48.728;8.968;2023-03-31T15:39:51;3.50;;;0.73;;
6821;SDS011;3449;48.728;8.968;2023-03-31T15:42:22;2.47;;;0.67;;
6821;SDS011;3449;48.728;8.968;2023-03-31T15:44:53;1.17;;;0.50;;
6821;SDS011;3449;48.728;8.968;2023-03-31T15:47:21;0.70;;;0.60;;
6821;SDS011;3449;48.728;8.968;2023-03-31T15:49:52;1.53;;;0.70;;
6821;SDS011;3449;48.728;8.968;2023-03-31T15:52:22;2.87;;;0.60;;
6821;SDS011;3449;48.728;8.968;2023-03-31T15:54:52;3.87;;;0.70;;
6821;SDS011;3449;48.728;8.968;2023-03-31T15:57:19;0.93;;;0.50;;
6821;SDS011;3449;48.728;8.968;2023-03-31T15:59:46;4.17;;;0.63;;
6821;SDS011;3449;48.728;8.968;2023-03-31T16:02:15;2.50;;;0.70;;